Time;durP1;ratioP1;P1;durP2;ratioP2;P2;SDS_P1;SDS_P2;PMS_P1;PMS_P2;Temp;Humidity;BMP_temperature;BMP_pressure;BME280_temperature;BME280_humidity;BME280_pressure;Samples;Min_cycle;Max_cycle;Signal;HPM_P1;HPM_P2
2022/05/29 00:01:50;;;;;;;17.15;4.20;;;10.90;99.90;;;9.71;100.00;100682.00;5009859;28;20463;-77
2022/05/29 00:04:17;;;;;;;16.83;4.22;;;10.90;99.90;;;9.72;100.00;100688.09;4981073;28;20037;-77
2022/05/29 00:06:49;;;;;;;19.58;4.00;;;10.90;99.90;;;9.72;100.00;100690.72;4922708;28;20044;-77
2022/05/29 00:09:25;;;;;;;16.23;4.32;;;10.90;99.90;;;9.72;100.00;100690.72;5002763;28;20077;-77
2022/05/29 00:11:51;;;;;;;14.57;4.60;;;10.90;99.90;;;9.70;100.00;100677.66;5004922;28;20056;-77
2022/05/29 00:14:17;;;;;;;21.90;4.88;;;10.90;99.90;;;9.70;100.00;100679.41;5020158;28;20031;-77
2022/05/29 00:16:43;;;;;;;19.95;4.32;;;10.90;99.90;;;9.71;100.00;100675.88;4987308;28;20070;-77
2022/05/29 00:19:08;;;;;;;16.25;4.10;;;10.90;99.90;;;9.70;100.00;100677.66;5034179;28;20119;-77
2022/05/29 00:21:36;;;;;;;18.27;5.30;;;10.90;99.90;;;9.71;100.00;100673.25;4985426;28;20170;-77
2022/05/29 00:24:07;;;;;;;13.52;4.45;;;10.90;99.90;;;9.72;100.00;100678.47;4972523;28;20032;-77
2022/05/29 00:26:33;;;;;;;15.27;4.40;;;10.90;99.90;;;9.72;100.00;100675.81;5017210;28;20066;-78
2022/05/29 00:28:59;;;;;;;15.20;4.35;;;10.90;99.90;;;9.73;100.00;100679.31;5004064;28;20040;-77
2022/05/29 00:31:24;;;;;;;16.10;4.63;;;10.90;99.90;;;9.74;100.00;100673.09;5010501;28;20047;-78
2022/05/29 00:33:50;;;;;;;15.80;4.28;;;10.90;99.90;;;9.72;100.00;100673.19;5019982;28;20481;-78
2022/05/29 00:36:17;;;;;;;16.80;3.90;;;10.90;99.90;;;9.73;100.00;100677.53;5010212;28;20016;-78
2022/05/29 00:38:47;;;;;;;19.55;4.85;;;10.90;99.90;;;9.74;100.00;100670.47;5000932;28;20702;-78
2022/05/29 00:41:30;;;;;;;21.50;4.85;;;10.90;99.90;;;9.74;100.00;100675.75;5028468;28;20036;-79
2022/05/29 00:44:17;;;;;;;23.25;4.95;;;10.90;99.90;;;9.71;100.00;100671.47;5014929;28;20048;-78
2022/05/29 00:46:51;;;;;;;17.10;4.35;;;10.90;99.90;;;9.73;100.00;100674.03;5014244;28;20021;-79
2022/05/29 00:49:27;;;;;;;26.33;5.20;;;10.90;99.90;;;9.73;100.00;100667.00;5020748;28;20025;-79
2022/05/29 00:52:01;;;;;;;;;;;10.90;99.90;;;9.72;100.00;100659.16;5023259;28;20141;-78
2022/05/29 00:54:34;;;;;;;20.05;4.97;;;10.90;99.90;;;9.70;100.00;100668.91;5023519;28;20439;-78
2022/05/29 00:57:00;;;;;;;17.27;4.70;;;10.90;99.90;;;9.69;100.00;100661.94;5011999;28;20028;-78
2022/05/29 00:59:28;;;;;;;15.77;4.90;;;10.90;99.90;;;9.67;100.00;100661.16;5006970;28;20037;-78
2022/05/29 01:01:58;;;;;;;25.88;5.15;;;10.90;99.90;;;9.68;100.00;100662.88;5010196;28;20044;-78
2022/05/29 01:04:24;;;;;;;16.50;4.45;;;10.90;99.90;;;9.69;100.00;100661.94;4961649;28;20037;-79
2022/05/29 01:06:52;;;;;;;18.42;5.40;;;10.90;99.90;;;9.69;100.00;100667.22;5001778;28;20136;-79
2022/05/29 01:09:17;;;;;;;19.10;4.80;;;10.90;99.90;;;9.68;100.00;100665.53;4988860;28;20032;-78
2022/05/29 01:11:58;;;;;;;21.75;5.10;;;10.90;99.90;;;9.64;100.00;100655.13;5010823;28;20021;-78
2022/05/29 01:14:38;;;;;;;15.32;4.93;;;10.80;99.90;;;9.65;100.00;100656.84;4982207;28;20801;-79
2022/05/29 01:17:14;;;;;;;22.80;5.93;;;10.80;99.90;;;9.65;100.00;100654.22;5028129;28;20021;-79
2022/05/29 01:20:23;;;;;;;15.32;5.13;;;10.80;99.90;;;9.64;100.00;100655.13;5005404;28;20485;-78
2022/05/29 01:23:23;;;;;;;17.65;5.35;;;10.80;99.90;;;9.62;100.00;100654.31;5004831;28;20042;-78
2022/05/29 01:26:07;;;;;;;22.88;5.65;;;10.80;99.90;;;9.61;100.00;100652.63;5048803;28;20050;-78
2022/05/29 01:29:03;;;;;;;18.27;5.50;;;10.80;99.90;;;9.61;100.00;100652.63;5021198;28;20029;-78
2022/05/29 01:31:58;;;;;;;16.35;5.20;;;10.80;99.90;;;9.60;100.00;100652.69;5018436;28;20041;-78
2022/05/29 01:34:53;;;;;;;23.33;5.97;;;10.80;99.90;;;9.60;100.00;100650.06;5019134;28;20104;-79
2022/05/29 01:37:37;;;;;;;17.50;6.03;;;10.80;99.90;;;9.60;100.00;100650.91;4982202;28;20076;-79
2022/05/29 01:40:17;;;;;;;21.25;6.32;;;10.80;99.90;;;9.58;100.00;100651.91;4995260;28;20113;-79
2022/05/29 01:42:57;;;;;;;21.23;5.65;;;10.80;99.90;;;9.57;100.00;100652.84;5009974;28;20049;-79
2022/05/29 01:45:31;;;;;;;19.88;5.45;;;10.80;99.90;;;9.57;100.00;100651.06;5020233;28;20028;-78
2022/05/29 01:48:14;;;;;;;21.83;5.93;;;10.80;99.90;;;9.58;100.00;100655.38;4963069;28;20077;-78
2022/05/29 01:50:55;;;;;;;21.42;6.03;;;10.80;99.90;;;9.58;100.00;100647.50;5018934;28;20021;-78
2022/05/29 01:53:38;;;;;;;19.17;5.82;;;10.80;99.90;;;9.59;100.00;100653.59;5032985;28;20037;-79
2022/05/29 01:56:36;;;;;;;24.92;5.65;;;10.80;99.90;;;9.61;100.00;100655.25;4993717;28;20060;-79
2022/05/29 01:59:21;;;;;;;19.38;6.10;;;10.80;99.90;;;9.59;100.00;100648.34;4974564;28;20077;-79
2022/05/29 02:01:59;;;;;;;18.92;5.72;;;10.80;99.90;;;9.56;100.00;100646.69;5019111;28;20492;-78
2022/05/29 02:04:28;;;;;;;20.42;6.50;;;10.80;99.90;;;9.56;100.00;100651.13;5000674;28;20498;-78
2022/05/29 02:09:50;;;;;;;18.35;6.35;;;10.80;99.90;;;9.58;100.00;100654.53;4997153;28;20029;-79
2022/05/29 02:12:22;;;;;;;20.70;5.88;;;10.80;99.90;;;9.57;100.00;100653.69;5014416;28;22698;-78
2022/05/29 02:15:01;;;;;;;18.80;6.03;;;10.80;99.90;;;9.58;100.00;100657.16;5030027;28;20021;-78
2022/05/29 02:17:39;;;;;;;22.70;5.88;;;10.80;99.90;;;9.59;100.00;100654.47;5009203;28;20050;-78
2022/05/29 02:20:18;;;;;;;24.50;6.72;;;10.80;99.90;;;9.59;100.00;100643.97;5005766;28;20047;-78
2022/05/29 02:22:46;;;;;;;28.45;6.78;;;10.80;99.90;;;9.58;100.00;100647.50;4991744;28;20434;-79
2022/05/29 02:25:17;;;;;;;20.08;6.10;;;10.80;99.90;;;9.58;100.00;100636.97;4999615;28;20017;-79
2022/05/29 02:27:58;;;;;;;23.48;6.78;;;10.80;99.90;;;9.58;100.00;100633.50;5042008;28;20029;-79
2022/05/29 02:30:35;;;;;;;22.23;6.55;;;10.80;99.90;;;9.58;100.00;100639.59;5016436;28;20468;-78
2022/05/29 02:33:18;;;;;;;24.45;6.07;;;10.70;99.90;;;9.56;100.00;100638.81;4997702;28;20025;-78
2022/05/29 02:36:23;;;;;;;23.80;6.65;;;10.70;99.90;;;9.56;100.00;100640.59;5043458;28;20028;-79
2022/05/29 02:39:00;;;;;;;24.27;7.00;;;10.70;99.90;;;9.54;100.00;100634.56;5029041;28;20067;-78
2022/05/29 02:42:08;;;;;;;21.05;7.45;;;10.70;99.90;;;9.53;100.00;100640.75;4991592;28;20033;-78
2022/05/29 02:45:31;;;;;;;24.73;7.03;;;10.70;99.90;;;9.51;100.00;100637.34;5009741;28;20049;-79
2022/05/29 02:48:10;;;;;;;25.55;7.20;;;10.70;99.90;;;9.49;100.00;100634.75;5039801;28;20099;-78
2022/05/29 02:50:48;;;;;;;21.70;7.30;;;10.70;99.90;;;9.51;100.00;100632.91;5014034;28;20045;-78
2022/05/29 02:53:16;;;;;;;21.95;6.68;;;10.70;99.90;;;9.50;100.00;100632.97;4994677;28;20696;-79
2022/05/29 02:55:46;;;;;;;23.27;7.60;;;10.70;99.90;;;9.49;100.00;100637.38;5031075;28;20028;-78
2022/05/29 02:58:22;;;;;;;21.77;7.93;;;10.70;99.90;;;9.50;100.00;100631.19;4990217;28;20024;-79
2022/05/29 03:01:06;;;;;;;;;;;13.00;99.90;;;9.44;100.00;100632.34;4995060;28;20036;-79
2022/05/29 03:03:53;;;;;;;27.77;7.30;;;10.70;99.90;;;9.44;100.00;100639.38;5012086;28;20348;-79
2022/05/29 03:06:52;;;;;;;22.58;7.75;;;10.60;99.90;;;9.43;100.00;100637.66;4989648;28;20037;-77
2022/05/29 03:10:16;;;;;;;26.80;7.20;;;10.60;99.90;;;9.42;100.00;100643.84;5032240;28;20513;-79
2022/05/29 03:13:19;;;;;;;25.65;7.72;;;10.60;99.90;;;9.41;100.00;100637.72;4994504;28;20040;-80
2022/05/29 03:16:29;;;;;;;30.85;8.20;;;10.60;99.90;;;9.40;100.00;100637.78;4993188;28;20033;-78
2022/05/29 03:19:30;;;;;;;30.27;8.23;;;10.60;99.90;;;9.41;100.00;100632.44;5040512;28;20094;-78
2022/05/29 03:22:13;;;;;;;26.20;8.80;;;10.60;99.90;;;9.44;100.00;100642.00;5012439;28;20040;-79
2022/05/29 03:25:13;;;;;;;25.70;7.82;;;10.50;99.90;;;9.46;100.00;100640.16;4961092;28;20042;-78
2022/05/29 03:27:49;;;;;;;21.17;7.82;;;10.70;99.90;;;9.49;100.00;100640.03;4999499;28;20040;-78
2022/05/29 03:30:30;;;;;;;27.00;8.13;;;10.60;99.90;;;9.49;100.00;100640.03;5014912;28;20160;-78
2022/05/29 03:32:59;;;;;;;22.33;7.63;;;10.70;99.90;;;9.50;100.00;100638.25;5038175;28;20025;-78
2022/05/29 03:35:45;;;;;;;26.40;8.32;;;10.70;99.90;;;9.49;100.00;100640.03;5008887;28;20063;-78
2022/05/29 03:38:13;;;;;;;27.97;8.23;;;10.70;99.90;;;9.50;100.00;100633.81;5028179;28;20067;-79
2022/05/29 03:40:39;;;;;;;23.70;7.60;;;10.70;99.90;;;9.53;100.00;100635.50;4984376;28;21190;-78
2022/05/29 03:43:05;;;;;;;25.83;8.10;;;10.70;99.90;;;9.52;100.00;100633.75;4992016;28;20049;-78
2022/05/29 03:45:31;;;;;;;29.52;8.18;;;10.70;99.90;;;9.54;100.00;100634.56;5026268;28;20440;-78
2022/05/29 03:47:57;;;;;;;26.10;8.43;;;10.70;99.90;;;9.55;100.00;100637.13;5022230;28;20597;-78
2022/05/29 03:50:27;;;;;;;28.40;8.25;;;10.70;99.90;;;9.58;100.00;100642.25;5010312;28;20041;-78
2022/05/29 03:52:54;;;;;;;28.27;7.85;;;10.80;99.90;;;9.61;100.00;100635.97;4990528;28;20042;-79
2022/05/29 03:55:21;;;;;;;26.35;8.52;;;10.80;99.90;;;9.65;100.00;100635.81;5014301;28;20025;-78
2022/05/29 03:57:48;;;;;;;28.05;8.50;;;10.80;99.90;;;9.69;100.00;100638.28;5027017;28;20056;-78
2022/05/29 04:00:15;;;;;;;28.27;8.38;;;10.80;99.90;;;9.69;100.00;100635.66;5020636;28;20952;-78
2022/05/29 04:02:48;;;;;;;27.48;7.95;;;10.90;99.90;;;9.73;100.00;100626.72;4975852;28;20051;-77
2022/05/29 04:05:22;;;;;;;30.98;8.55;;;10.90;99.90;;;9.78;100.00;100629.97;5003588;28;20389;-77
2022/05/29 04:13:23;;;;;;;31.45;8.40;;;11.00;99.90;;;9.89;100.00;100630.34;5024428;28;20027;-77
2022/05/29 04:15:49;;;;;;;35.55;9.02;;;11.00;99.90;;;9.93;100.00;100639.81;4993313;28;20025;-77
2022/05/29 04:18:18;;;;;;;34.78;9.35;;;11.10;99.90;;;9.96;100.00;100634.44;4998688;28;20075;-77
2022/05/29 04:20:45;;;;;;;32.58;8.60;;;11.10;99.90;;;10.00;100.00;100643.00;4997035;28;20779;-77
2022/05/29 04:23:12;;;;;;;28.77;8.73;;;11.10;99.90;;;10.03;100.00;100640.25;5011508;28;20047;-77
2022/05/29 04:25:37;;;;;;;29.60;8.95;;;11.10;99.90;;;10.07;100.00;100642.69;4990526;28;20521;-77
2022/05/29 04:28:07;;;;;;;34.55;9.52;;;11.20;99.90;;;10.13;100.00;100635.41;4978201;28;20044;-77
2022/05/29 04:30:32;;;;;;;32.28;8.82;;;11.20;99.90;;;10.15;100.00;100639.72;5007231;28;20028;-77
2022/05/29 04:33:01;;;;;;;26.65;8.90;;;11.30;99.90;;;10.19;100.00;100641.25;4993897;28;20123;-77
2022/05/29 04:35:36;;;;;;;39.50;9.82;;;11.30;99.90;;;10.22;100.00;100635.00;5008489;28;20564;-77
2022/05/29 04:38:02;;;;;;;32.20;9.57;;;11.30;99.90;;;10.25;100.00;100642.75;5034080;28;20024;-77
2022/05/29 04:40:30;;;;;;;34.25;9.25;;;11.40;99.90;;;10.30;100.00;100637.28;5058005;28;20143;-78
2022/05/29 04:42:55;;;;;;;36.42;8.77;;;11.40;99.90;;;10.32;100.00;100638.94;5005856;28;20044;-78
2022/05/29 04:45:21;;;;;;;29.25;9.10;;;11.40;99.90;;;10.37;100.00;100628.22;5015677;28;20048;-78
2022/05/29 04:47:50;;;;;;;30.90;8.82;;;11.50;99.90;;;10.41;100.00;100640.28;4986655;28;20033;-79
2022/05/29 04:50:15;;;;;;;36.75;9.10;;;11.50;99.90;;;10.46;100.00;100636.50;5000520;28;20473;-77
2022/05/29 04:52:41;;;;;;;35.13;9.52;;;11.50;99.90;;;10.52;100.00;100643.28;5035781;22;20042;-78
2022/05/29 04:55:08;;;;;;;29.27;9.27;;;11.60;99.90;;;10.57;100.00;100645.69;4986403;28;20022;-76
2022/05/29 04:57:34;;;;;;;37.85;9.45;;;11.60;99.90;;;10.59;100.00;100641.19;4974679;28;20026;-77
2022/05/29 05:00:00;;;;;;;30.05;8.32;;;11.70;99.90;;;10.65;100.00;100640.91;4921537;28;20033;-77
2022/05/29 05:02:29;;;;;;;38.28;9.82;;;11.70;99.90;;;10.73;100.00;100640.53;4981269;28;20554;-77
2022/05/29 05:04:54;;;;;;;38.67;8.55;;;11.80;99.90;;;10.76;100.00;100651.75;5001150;28;20027;-77
2022/05/29 05:07:20;;;;;;;29.50;8.77;;;11.80;99.90;;;10.83;100.00;100650.53;4996859;28;20107;-77
2022/05/29 05:09:46;;;;;;;35.55;9.15;;;11.90;99.90;;;10.90;100.00;100652.88;4963488;28;20113;-77
2022/05/29 05:12:12;;;;;;;34.33;8.73;;;11.90;99.90;;;10.94;100.00;100649.16;4955871;28;20053;-78
2022/05/29 05:14:38;;;;;;;36.22;8.98;;;12.00;99.90;;;11.02;100.00;100650.47;4983686;28;20058;-77
2022/05/29 05:17:09;;;;;;;31.02;8.70;;;12.10;99.90;;;11.08;100.00;100652.81;4983922;28;20022;-77
2022/05/29 05:19:35;;;;;;;42.42;8.70;;;12.10;99.90;;;11.13;100.00;100657.00;5001264;28;20026;-77
2022/05/29 05:22:02;;;;;;;43.05;9.38;;;12.20;99.90;;;11.19;100.00;100657.56;4947915;28;20100;-77
2022/05/29 05:24:28;;;;;;;38.00;8.93;;;12.20;99.90;;;11.25;100.00;100654.63;4979299;28;20477;-77
2022/05/29 05:26:56;;;;;;;35.42;8.48;;;12.30;99.90;;;11.33;100.00;100654.22;4998877;28;20056;-78
2022/05/29 05:29:22;;;;;;;42.03;9.57;;;12.30;99.90;;;11.37;100.00;100657.56;4982750;28;20061;-77
2022/05/29 05:31:50;;;;;;;36.53;8.80;;;12.40;99.90;;;11.47;100.00;100664.06;4957895;28;20081;-77
2022/05/29 05:34:16;;;;;;;35.72;7.93;;;;;;;11.56;100.00;100665.38;4956704;23;20085;-77
2022/05/29 05:36:45;;;;;;;41.55;8.98;;;;;;;11.65;100.00;100660.47;4914885;28;20071;-78
2022/05/29 05:39:11;;;;;;;33.92;8.70;;;12.60;99.90;;;11.72;100.00;100668.91;4985943;28;20029;-77
2022/05/29 05:41:39;;;;;;;30.38;8.13;;;12.70;99.90;;;11.83;100.00;100668.34;4999377;28;20041;-77
2022/05/29 05:44:07;;;;;;;34.90;7.95;;;12.80;99.90;;;11.92;99.81;100673.16;4983895;28;20238;-77
2022/05/29 05:46:33;;;;;;;44.90;8.40;;;12.90;99.90;;;12.02;98.65;100665.63;4992020;28;20030;-77
2022/05/29 05:48:59;;;;;;;33.83;8.48;;;12.90;99.90;;;12.07;98.04;100663.56;4964476;28;20508;-78
2022/05/29 05:51:25;;;;;;;38.72;8.93;;;13.00;99.90;;;12.18;97.49;100665.63;4986810;28;20505;-77
2022/05/29 05:53:51;;;;;;;28.70;8.15;;;13.10;99.90;;;12.32;97.30;100671.03;4967061;28;20091;-77
2022/05/29 05:56:18;;;;;;;31.02;7.80;;;13.20;99.90;;;12.50;96.93;100667.38;4991785;28;20030;-77
2022/05/29 05:58:45;;;;;;;36.88;8.13;;;13.30;99.90;;;12.61;94.88;100676.47;4995480;28;20494;-78
2022/05/29 06:01:16;;;;;;;35.85;7.45;;;13.40;99.90;;;12.72;94.16;100676.72;4961526;28;20098;-77
2022/05/29 06:03:43;;;;;;;36.65;7.72;;;13.60;99.90;;;12.83;92.86;100673.47;4991134;28;20569;-77
2022/05/29 06:06:13;;;;;;;37.28;7.97;;;13.70;99.90;;;12.92;92.00;100671.16;4994170;28;20037;-78
2022/05/29 06:08:39;;;;;;;36.28;8.30;;;13.80;99.90;;;13.04;91.59;100671.41;4943767;28;20045;-78
2022/05/29 06:11:05;;;;;;;31.02;7.82;;;13.80;99.90;;;13.11;91.05;100678.91;4986228;28;20191;-78
2022/05/29 06:13:31;;;;;;;33.65;7.95;;;13.90;99.90;;;13.25;91.49;100677.25;4980423;22;20087;-77
2022/05/29 06:16:02;;;;;;;32.92;7.20;;;14.10;99.90;;;13.33;90.45;100689.09;4988295;28;20076;-77
2022/05/29 06:18:28;;;;;;;34.58;7.55;;;14.20;99.90;;;13.41;89.03;100680.72;5008341;28;20022;-77
2022/05/29 06:21:04;;;;;;;40.35;7.93;;;14.20;99.90;;;13.49;88.27;100680.25;5010410;28;20040;-77
2022/05/29 06:23:33;;;;;;;;;;;14.30;99.90;;;13.49;87.43;100681.09;4966098;28;20036;-77
2022/05/29 06:26:10;;;;;;;45.33;7.07;;;14.40;99.90;;;13.57;87.94;100685.09;5018595;28;20023;-77
2022/05/29 06:28:36;;;;;;;31.13;7.35;;;14.50;99.90;;;13.69;87.72;100697.56;4994192;28;20390;-77
2022/05/29 06:31:08;;;;;;;31.27;6.47;;;14.60;99.90;;;13.77;86.94;100692.69;4999334;28;20029;-78
2022/05/29 06:33:34;;;;;;;31.17;7.40;;;14.60;99.90;;;13.85;85.90;100701.00;4988527;28;20055;-77
2022/05/29 06:36:23;;;;;;;39.30;7.00;;;14.70;99.90;;;13.89;85.34;100701.69;4993214;28;20029;-77
2022/05/29 06:38:49;;;;;;;37.47;7.20;;;14.70;99.90;;;13.92;85.68;100702.34;4985436;28;20050;-78
2022/05/29 06:41:18;;;;;;;33.17;7.15;;;14.80;99.90;;;14.01;85.41;100694.78;4999699;28;20044;-77
2022/05/29 06:43:46;;;;;;;31.60;6.72;;;14.80;99.90;;;14.06;84.67;100693.56;4983584;28;20100;-77
2022/05/29 06:46:21;;;;;;;30.05;6.68;;;14.90;99.90;;;14.20;84.43;100703.28;4931893;28;20021;-77
2022/05/29 06:48:47;;;;;;;24.60;6.20;;;15.00;99.90;;;14.22;83.19;100693.44;4984490;28;21085;-77
2022/05/29 06:51:20;;;;;;;29.90;7.22;;;15.00;99.90;;;14.29;83.20;100694.75;5019926;28;20030;-77
2022/05/29 06:53:48;;;;;;;27.27;6.18;;;15.10;99.90;;;14.40;83.12;100695.88;4958614;28;20057;-77
2022/05/29 06:56:14;;;;;;;35.25;7.07;;;15.20;99.90;;;14.47;81.97;100698.06;4986749;28;20033;-77
2022/05/29 06:58:42;;;;;;;34.80;7.22;;;15.30;99.90;;;14.52;80.96;100703.06;4984228;28;20043;-77
2022/05/29 07:06:59;;;;;;;36.72;6.55;;;15.50;99.90;;;14.71;79.78;100695.69;4987015;28;20029;-78
2022/05/29 07:09:39;;;;;;;35.42;6.57;;;15.50;99.90;;;14.75;78.62;100712.22;4948116;28;20033;-78
2022/05/29 07:14:35;;;;;;;27.95;5.53;;;15.50;99.90;;;14.72;79.77;100712.44;5042996;22;20060;-77
2022/05/29 07:17:01;;;;;;;34.92;6.55;;;15.60;99.90;;;14.81;79.47;100706.53;4990876;28;20034;-78
2022/05/29 07:19:28;;;;;;;29.42;6.55;;;15.60;99.90;;;14.88;78.40;100718.44;5026002;28;20021;-77
2022/05/29 07:21:57;;;;;;;29.23;6.18;;;15.70;99.90;;;14.97;78.25;100719.66;5026780;28;21321;-77
2022/05/29 07:24:26;;;;;;;34.10;6.40;;;15.70;99.90;;;15.03;78.79;100726.34;5009981;28;20103;-78
2022/05/29 07:26:53;;;;;;;28.60;5.43;;;15.80;99.90;;;15.10;78.14;100717.06;5035974;28;20092;-77
2022/05/29 07:32:07;;;;;;;23.73;5.28;;;15.90;99.90;;;15.16;77.83;100733.41;5045789;28;20105;-76
2022/05/29 07:34:33;;;;;;;29.33;5.88;;;15.90;99.90;;;15.18;77.11;100723.56;5045136;28;20428;-75
2022/05/29 07:37:08;;;;;;;30.85;6.30;;;16.00;99.90;;;15.31;76.64;100731.56;5039416;28;20044;-75
2022/05/29 07:39:42;;;;;;;33.13;6.32;;;16.00;99.90;;;15.38;75.37;100729.34;5040757;28;20088;-75
2022/05/29 07:44:54;;;;;;;33.20;6.22;;;16.20;99.90;;;15.54;75.48;100734.47;5053553;28;20028;-75
2022/05/29 07:47:22;;;;;;;31.10;5.43;;;16.20;99.90;;;15.44;74.25;100739.50;5040463;28;20112;-75
2022/05/29 07:49:48;;;;;;;23.38;4.60;;;16.10;99.90;;;15.25;73.48;100742.56;5058942;28;20409;-75
2022/05/29 07:52:14;;;;;;;22.70;5.13;;;16.00;99.90;;;15.11;74.12;100747.91;5050952;28;20048;-75
2022/05/29 07:54:40;;;;;;;27.88;5.90;;;16.00;99.90;;;15.26;74.93;100744.25;5053192;28;20046;-75
2022/05/29 07:57:06;;;;;;;28.08;5.53;;;16.10;99.90;;;15.29;74.30;100736.09;5011704;28;20037;-75
2022/05/29 07:59:32;;;;;;;25.35;4.82;;;16.10;99.90;;;15.23;73.83;100744.47;5056866;28;20441;-75
2022/05/29 08:01:57;;;;;;;22.52;5.30;;;16.00;99.90;;;15.23;73.48;100739.16;5039670;28;20583;-75
2022/05/29 08:04:23;;;;;;;28.58;5.35;;;16.00;99.90;;;15.23;73.61;100749.78;5058360;28;20028;-75
2022/05/29 08:06:50;;;;;;;20.77;5.38;;;16.00;99.90;;;15.12;73.83;100747.81;5071310;28;20032;-75
2022/05/29 08:09:16;;;;;;;23.38;5.00;;;16.00;99.90;;;15.13;73.89;100749.50;5056279;28;20111;-75
2022/05/29 08:11:42;;;;;;;28.80;5.63;;;16.10;99.90;;;15.35;74.10;100753.41;5053024;28;20036;-75
2022/05/29 08:14:08;;;;;;;28.10;5.80;;;16.10;99.90;;;15.33;73.61;100756.19;5039436;28;20029;-75
2022/05/29 08:16:34;;;;;;;28.73;6.03;;;16.20;99.90;;;15.50;73.88;100757.69;5032410;28;20040;-75
2022/05/29 08:19:00;;;;;;;23.73;4.82;;;16.30;99.90;;;15.63;72.47;100755.06;5057561;28;20036;-76
2022/05/29 08:21:26;;;;;;;24.88;5.85;;;16.30;99.90;;;15.64;72.21;100764.75;5054496;28;20123;-75
2022/05/29 08:32:10;;;;;;;20.90;4.90;;;16.70;99.90;;;16.14;71.43;100763.13;5059929;28;20117;-75
2022/05/29 08:34:39;;;;;;;23.52;5.85;;;16.70;99.90;;;16.07;70.99;100761.84;5057184;28;20169;-76
2022/05/29 08:37:06;;;;;;;27.77;5.53;;;16.90;99.90;;;16.44;70.39;100769.06;5042614;28;20374;-75
2022/05/29 08:39:32;;;;;;;24.98;5.50;;;17.10;99.90;;;16.90;68.12;100771.13;5061791;28;20488;-75
2022/05/29 08:42:02;;;;;;;24.55;5.47;;;17.40;99.90;;;17.37;68.10;100769.44;5047771;28;20075;-75
2022/05/29 08:44:46;;;;;;;25.77;4.55;;;17.70;99.90;;;17.40;65.48;100769.19;5050245;28;20133;-76
2022/05/29 08:47:25;;;;;;;17.08;4.15;;;17.90;99.90;;;17.44;65.74;100770.66;5062214;28;20028;-75
2022/05/29 08:49:53;;;;;;;22.98;4.78;;;18.10;99.90;;;17.73;64.52;100779.16;5048983;28;20062;-75
2022/05/29 08:52:56;;;;;;;23.05;4.20;;;18.20;99.90;;;17.90;63.08;100788.50;5062045;28;20365;-75
2022/05/29 08:55:51;;;;;;;20.92;4.50;;;18.40;99.90;;;18.04;63.32;100783.00;5062172;28;20040;-75
2022/05/29 08:58:39;;;;;;;22.73;4.10;;;18.60;99.90;;;18.20;62.52;100782.63;5055901;28;20547;-75
2022/05/29 09:01:51;;;;;;;22.75;4.47;;;18.70;99.90;;;18.39;62.63;100781.22;5034994;28;20509;-75
2022/05/29 09:04:45;;;;;;;19.98;4.35;;;18.90;99.90;;;18.54;61.28;100784.50;5058829;28;20027;-75
2022/05/29 09:07:22;;;;;;;23.45;4.47;;;19.00;99.90;;;18.59;61.40;100790.28;5043040;28;20036;-75
2022/05/29 09:10:05;;;;;;;20.90;4.10;;;19.10;99.90;;;18.73;59.21;100786.56;5041609;28;20056;-75
2022/05/29 09:12:47;;;;;;;14.48;4.13;;;19.30;99.90;;;18.90;59.49;100790.53;5059638;28;20565;-75
2022/05/29 09:15:22;;;;;;;20.90;4.38;;;19.40;99.90;;;18.98;58.96;100799.63;5073386;28;20507;-75
2022/05/29 09:18:00;;;;;;;16.75;3.65;;;19.50;99.90;;;19.05;57.81;100797.31;5060657;28;20044;-75
2022/05/29 09:20:34;;;;;;;18.15;4.20;;;19.50;99.90;;;19.08;58.15;100797.06;5049505;28;20571;-76
2022/05/29 09:23:09;;;;;;;19.77;4.45;;;19.60;99.90;;;19.16;59.11;100802.63;5072209;28;20157;-76
2022/05/29 09:25:45;;;;;;;26.48;4.20;;;19.60;99.90;;;19.22;58.05;100803.94;5058722;28;20039;-75
2022/05/29 09:28:32;;;;;;;27.38;4.28;;;19.70;99.90;;;19.28;58.01;100803.44;5055399;28;20475;-75
2022/05/29 09:31:25;;;;;;;22.52;4.30;;;19.70;99.90;;;19.23;57.04;100801.16;5059820;28;20044;-75
2022/05/29 09:33:52;;;;;;;21.15;4.25;;;19.70;99.90;;;19.29;57.64;100812.28;5059680;28;20119;-75
2022/05/29 09:37:07;;;;;;;22.38;4.28;;;19.90;99.90;;;19.65;57.63;100811.06;5057365;28;20115;-75
2022/05/29 09:39:48;;;;;;;22.95;3.90;;;20.20;99.90;;;19.95;55.49;100806.81;5034184;28;21471;-76
2022/05/29 09:42:24;;;;;;;18.80;4.20;;;20.40;99.90;;;20.32;54.98;100814.38;5056356;28;20389;-76
2022/05/29 09:45:30;;;;;;;15.50;3.85;;;20.70;99.90;;;20.73;53.31;100812.63;5054655;28;20119;-75
2022/05/29 09:50:55;;;;;;;22.55;4.07;;;21.40;99.90;;;21.22;53.17;100814.44;5058466;28;20094;-76
2022/05/29 09:53:34;;;;;;;21.40;4.20;;;21.70;99.90;;;21.50;51.40;100822.69;5056724;28;20115;-77
2022/05/29 09:56:08;;;;;;;14.48;3.13;;;21.90;99.90;;;21.75;50.56;100823.97;5025970;28;20020;-77
2022/05/29 09:58:50;;;;;;;15.87;3.50;;;22.20;99.90;;;22.08;50.51;100827.19;5048725;28;20503;-77
2022/05/29 10:01:50;;;;;;;16.60;3.55;;;22.50;99.90;;;22.30;48.94;100834.06;5031429;28;20527;-77
2022/05/29 10:04:35;;;;;;;16.30;3.50;;;22.60;99.70;;;22.15;49.77;100833.66;5053871;28;20044;-77
2022/05/29 10:07:34;;;;;;;19.25;3.72;;;22.70;99.80;;;22.38;49.49;100838.72;5052261;28;20096;-77
2022/05/29 10:10:13;;;;;;;17.88;3.22;;;22.80;99.70;;;22.55;49.02;100839.78;5040504;28;20400;-77
2022/05/29 10:12:57;;;;;;;17.60;3.33;;;23.00;99.00;;;22.73;47.72;100841.53;5040269;28;20392;-77
2022/05/29 10:15:32;;;;;;;18.10;3.47;;;23.20;98.30;;;22.76;48.86;100840.41;5052419;28;20028;-78
2022/05/29 10:18:20;;;;;;;13.45;3.20;;;23.10;97.50;;;22.57;48.36;100848.53;5037682;28;20110;-77
2022/05/29 10:20:56;;;;;;;17.73;3.22;;;23.00;98.90;;;22.51;49.03;100847.28;5058996;28;20554;-77
2022/05/29 10:23:34;;;;;;;;;;;23.00;99.10;;;22.43;48.87;100845.31;5028952;28;20028;-77
2022/05/29 10:26:33;;;;;;;13.70;2.72;;;22.90;97.90;;;22.44;47.88;100844.34;5057865;28;20279;-79
2022/05/29 10:29:11;;;;;;;14.50;3.13;;;23.00;98.60;;;22.64;47.35;100855.03;5039612;28;20032;-77
2022/05/29 10:31:45;;;;;;;12.88;2.95;;;23.10;97.90;;;22.77;46.88;100852.84;5071691;28;20036;-77
2022/05/29 10:34:21;;;;;;;11.48;2.85;;;23.20;97.30;;;22.78;46.70;100859.88;5048799;28;20036;-77
2022/05/29 10:36:54;;;;;;;6.80;2.03;;;23.20;96.60;;;22.75;46.73;100864.72;5040314;28;20028;-77
2022/05/29 10:39:31;;;;;;;13.98;2.88;;;23.20;96.50;;;22.58;46.78;100867.16;5058466;28;20025;-77
2022/05/29 10:42:01;;;;;;;10.55;2.65;;;23.20;95.40;;;22.60;45.06;100870.56;5031554;28;20036;-77
2022/05/29 10:44:51;;;;;;;12.75;2.85;;;23.20;96.80;;;22.72;45.55;100868.53;5047151;28;20024;-77
2022/05/29 10:47:45;;;;;;;10.45;2.67;;;23.30;97.00;;;22.97;45.73;100872.38;5046621;28;21182;-77
2022/05/29 10:51:02;;;;;;;12.05;2.60;;;23.50;95.00;;;23.02;43.26;100875.50;5050385;28;20479;-77
2022/05/29 10:54:05;;;;;;;11.00;2.30;;;23.60;95.50;;;23.26;43.74;100866.91;4996719;28;20573;-77
2022/05/29 10:56:54;;;;;;;12.32;2.53;;;23.70;96.60;;;23.37;44.65;100863.16;4993922;28;20518;-74
2022/05/29 10:59:56;;;;;;;14.07;2.40;;;23.90;95.00;;;23.34;43.19;100876.88;5005396;28;20032;-74
2022/05/29 11:03:18;;;;;;;10.32;2.35;;;23.80;95.00;;;23.25;43.67;100869.72;5056903;28;20089;-75
2022/05/29 11:06:24;;;;;;;9.63;2.13;;;23.80;94.10;;;23.01;42.61;100881.88;5062287;28;21903;-74
2022/05/29 11:09:05;;;;;;;7.07;1.90;;;23.60;94.40;;;22.99;44.04;100873.09;5047924;28;20097;-75
2022/05/29 11:12:03;;;;;;;9.65;2.08;;;23.60;95.00;;;22.98;44.20;100873.22;5058557;28;20051;-74
2022/05/29 11:15:01;;;;;;;11.57;2.70;;;23.60;94.60;;;22.96;43.41;100876.09;5050709;28;20499;-75
2022/05/29 11:17:47;;;;;;;8.05;2.25;;;23.50;94.70;;;23.00;43.59;100876.59;5053599;28;20111;-74